createdAt,value
2023-03-01T00:04:40.862Z,48.42
2023-03-01T00:09:42.541Z,61.40
2023-03-01T00:14:44.150Z,58.38
2023-03-01T00:19:45.786Z,55.05
2023-03-01T00:24:47.503Z,49.67
2023-03-01T00:29:49.102Z,52.33
2023-03-01T00:34:55.230Z,53.47
2023-03-01T00:39:56.942Z,47.13
2023-03-01T00:44:58.637Z,49.45
2023-03-01T00:50:00.400Z,55.80
2023-03-01T00:55:02.105Z,48.47
2023-03-01T01:00:06.721Z,49.08
2023-03-01T01:05:08.621Z,40.88
2023-03-01T01:10:13.878Z,51.10
2023-03-01T01:15:17.525Z,45.63
2023-03-01T01:20:19.316Z,45.20
2023-03-01T01:25:21.279Z,51.85
2023-03-01T01:30:22.998Z,42.72
2023-03-01T01:35:24.724Z,50.20
2023-03-01T01:40:26.459Z,54.15
2023-03-01T01:45:31.440Z,46.10
2023-03-01T01:50:39.295Z,51.97
2023-03-01T01:55:46.314Z,53.75
2023-03-01T02:00:48.970Z,53.57
2023-03-01T02:06:12.185Z,54.25
2023-03-01T02:11:18.218Z,50.50
2023-03-01T02:16:20.768Z,54.05
2023-03-01T02:21:45.253Z,56.78
2023-03-01T02:26:51.168Z,53.95
2023-03-01T02:31:57.498Z,54.13
2023-03-01T02:37:05.631Z,54.78
2023-03-01T02:42:07.878Z,47.33
2023-03-01T02:47:09.615Z,48.20
2023-03-01T02:52:29.859Z,55.63
2023-03-01T02:57:33.926Z,57.20
2023-03-01T03:02:37.169Z,55.33
2023-03-01T03:07:56.494Z,50.03
2023-03-01T03:13:01.969Z,47.92
2023-03-01T03:18:06.016Z,48.40
2023-03-01T03:23:07.977Z,54.85
2023-03-01T03:28:12.523Z,51.47
2023-03-01T03:33:14.952Z,50.38
2023-03-01T03:38:20.064Z,52.85
2023-03-01T03:43:23.958Z,54.97
2023-03-01T03:48:26.828Z,54.95
2023-03-01T03:53:30.091Z,55.95
2023-03-01T03:58:31.861Z,58.90
2023-03-01T04:03:34.232Z,57.40
2023-03-01T04:08:35.910Z,57.30
2023-03-01T04:13:37.561Z,52.78
2023-03-01T04:18:39.215Z,57.05
2023-03-01T04:23:41.959Z,49.50
2023-03-01T04:28:46.308Z,56.15
2023-03-01T04:33:52.377Z,55.28
2023-03-01T04:38:54.807Z,50.03
2023-03-01T04:43:56.641Z,58.60
2023-03-01T04:48:58.359Z,64.38
2023-03-01T04:54:01.446Z,57.72
2023-03-01T04:59:06.691Z,53.67
2023-03-01T05:04:13.912Z,61.63
2023-03-01T05:14:17.237Z,54.85
2023-03-01T05:19:23.574Z,57.38
2023-03-01T05:24:25.682Z,63.90
2023-03-01T05:29:29.378Z,57.33
2023-03-01T05:34:34.092Z,53.28
2023-03-01T05:39:35.866Z,59.17
2023-03-01T05:44:37.841Z,62.70
2023-03-01T05:49:39.894Z,60.92
2023-03-01T05:54:41.656Z,59.95
2023-03-01T05:59:43.279Z,59.33
2023-03-01T06:04:45.020Z,61.50
2023-03-01T06:09:46.801Z,65.07
2023-03-01T06:14:48.801Z,77.10
2023-03-01T06:19:50.529Z,63.17
2023-03-01T06:24:52.243Z,71.45
2023-03-01T06:29:53.976Z,74.95
2023-03-01T06:34:55.817Z,58.92
2023-03-01T06:39:58.086Z,45.60
2023-03-01T06:44:59.781Z,34.90
2023-03-01T06:50:03.258Z,27.17
2023-03-01T06:55:05.771Z,25.92
2023-03-01T07:00:09.202Z,28.60
2023-03-01T07:05:10.908Z,30.77
2023-03-01T07:10:13.627Z,26.77
2023-03-01T07:15:16.475Z,32.53
2023-03-01T07:20:26.463Z,34.63
2023-03-01T07:25:29.063Z,48.63
2023-03-01T07:30:30.804Z,39.60
2023-03-01T07:35:34.788Z,42.97
2023-03-01T07:40:36.824Z,41.70
2023-03-01T07:45:40.604Z,48.25
2023-03-01T07:50:43.338Z,44.00
2023-03-01T07:55:45.177Z,34.95
2023-03-01T08:00:46.989Z,47.28
2023-03-01T08:05:48.630Z,43.75
2023-03-01T08:10:51.418Z,45.78
2023-03-01T08:15:53.817Z,41.75
2023-03-01T08:20:55.690Z,48.17
2023-03-01T08:26:08.709Z,53.67
2023-03-01T08:31:36.365Z,46.00
2023-03-01T08:37:02.241Z,57.13
2023-03-01T08:42:05.251Z,52.47
2023-03-01T08:47:07.560Z,48.92
2023-03-01T08:52:09.819Z,55.10
2023-03-01T08:57:11.870Z,45.45
2023-03-01T09:02:17.599Z,50.58
2023-03-01T09:07:22.369Z,50.47
2023-03-01T09:12:28.418Z,42.92
2023-03-01T09:17:30.076Z,46.33
2023-03-01T09:22:33.795Z,46.33
2023-03-01T09:27:35.433Z,48.53
2023-03-01T09:32:37.151Z,45.70
2023-03-01T09:37:39.512Z,43.97
2023-03-01T09:42:50.005Z,40.15
2023-03-01T09:47:55.615Z,49.05
2023-03-01T09:53:10.307Z,40.33
2023-03-01T09:58:30.485Z,36.40
2023-03-01T10:03:37.523Z,45.10
2023-03-01T10:09:03.667Z,39.55
2023-03-01T10:14:28.489Z,43.28
2023-03-01T10:19:44.911Z,42.67
2023-03-01T10:24:47.814Z,32.60
2023-03-01T10:30:02.122Z,42.33
2023-03-01T10:35:18.650Z,32.65
2023-03-01T10:40:20.341Z,30.20
2023-03-01T10:45:31.178Z,33.80
2023-03-01T10:50:33.219Z,30.67
2023-03-01T10:55:36.265Z,26.70
2023-03-01T11:01:07.254Z,26.17
2023-03-01T11:06:11.935Z,33.90
2023-03-01T11:11:17.656Z,24.60
2023-03-01T11:16:27.090Z,25.58
2023-03-01T11:21:32.805Z,23.52
2023-03-01T11:26:39.703Z,24.38
2023-03-01T11:31:56.790Z,25.58
2023-03-01T11:37:03.104Z,28.13
2023-03-01T11:42:19.419Z,19.15
2023-03-01T11:47:27.434Z,20.08
2023-03-01T11:52:43.737Z,19.40
2023-03-01T11:58:08.695Z,16.40
2023-03-01T12:03:36.639Z,16.77
2023-03-01T12:08:52.967Z,14.93
2023-03-01T12:14:00.309Z,12.37
2023-03-01T12:19:39.256Z,12.82
2023-03-01T12:25:02.188Z,12.90
2023-03-01T12:30:31.157Z,12.65
2023-03-01T12:35:32.772Z,12.90
2023-03-01T12:40:49.354Z,13.75
2023-03-01T12:46:06.412Z,15.82
2023-03-01T12:56:19.004Z,15.90
2023-03-01T13:06:43.226Z,19.42
2023-03-01T13:11:45.858Z,21.40
2023-03-01T13:16:50.436Z,19.02
2023-03-01T13:21:57.744Z,18.17
2023-03-01T13:32:37.995Z,16.60
2023-03-01T13:37:45.983Z,16.40
2023-03-01T13:43:05.757Z,16.98
2023-03-01T13:48:12.955Z,18.17
2023-03-01T13:53:20.917Z,17.25
2023-03-01T13:58:29.186Z,20.27
2023-03-01T14:03:32.882Z,15.43
2023-03-01T14:08:38.104Z,17.75
2023-03-01T14:14:04.719Z,15.20
2023-03-01T14:19:33.066Z,18.60
2023-03-01T14:24:39.155Z,17.17
2023-03-01T14:29:41.479Z,20.20
2023-03-01T14:34:48.761Z,18.05
2023-03-01T14:39:51.218Z,17.65
2023-03-01T14:44:55.124Z,17.55
2023-03-01T14:50:02.174Z,21.63
2023-03-01T14:55:08.421Z,19.13
2023-03-01T15:00:18.583Z,18.40
2023-03-01T15:05:27.609Z,17.70
2023-03-01T15:10:35.955Z,17.27
2023-03-01T15:15:42.330Z,19.38
2023-03-01T15:20:44.333Z,19.40
2023-03-01T15:25:46.313Z,18.40
2023-03-01T15:30:56.529Z,18.00
2023-03-01T15:36:00.466Z,17.20
2023-03-01T15:41:23.667Z,17.63
2023-03-01T15:46:38.697Z,17.42
2023-03-01T15:51:40.579Z,16.50
2023-03-01T15:56:42.267Z,15.20
2023-03-01T16:01:44.864Z,22.77
2023-03-01T16:06:46.568Z,17.27
2023-03-01T16:11:49.190Z,17.05
2023-03-01T16:16:50.888Z,16.85
2023-03-01T16:21:52.525Z,17.50
2023-03-01T16:26:54.251Z,14.50
2023-03-01T16:31:56.219Z,15.40
2023-03-01T16:36:58.104Z,16.05
2023-03-01T16:42:01.552Z,16.70
2023-03-01T16:47:03.295Z,15.07
2023-03-01T16:52:04.916Z,25.05
2023-03-01T16:57:06.611Z,16.42
2023-03-01T17:02:13.558Z,21.00
2023-03-01T17:07:15.294Z,16.38
2023-03-01T17:12:18.003Z,23.05
2023-03-01T17:17:19.785Z,19.15
2023-03-01T17:22:21.496Z,22.17
2023-03-01T17:27:25.482Z,28.27
2023-03-01T17:32:27.865Z,35.63
2023-03-01T17:37:29.688Z,34.08
2023-03-01T17:42:31.553Z,33.88
2023-03-01T17:47:33.250Z,25.13
2023-03-01T17:52:34.917Z,51.67
2023-03-01T17:57:40.633Z,45.60
2023-03-01T18:02:42.905Z,38.67
2023-03-01T18:07:44.710Z,44.10
2023-03-01T18:12:46.871Z,46.92
2023-03-01T18:17:48.942Z,40.28
2023-03-01T18:22:52.755Z,36.55
2023-03-01T18:27:54.382Z,44.08
2023-03-01T18:32:56.486Z,46.95
2023-03-01T18:37:58.185Z,42.90
2023-03-01T18:43:00.355Z,75.13
2023-03-01T18:48:02.462Z,60.95
2023-03-01T18:53:04.249Z,74.53
2023-03-01T18:58:06.216Z,74.38
2023-03-01T19:03:08.084Z,67.82
2023-03-01T19:08:09.893Z,51.85
2023-03-01T19:13:11.663Z,53.65
2023-03-01T19:18:13.357Z,47.53
2023-03-01T19:23:15.256Z,49.47
2023-03-01T19:28:17.282Z,49.83
2023-03-01T19:33:19.177Z,42.30
2023-03-01T19:38:20.946Z,38.70
2023-03-01T19:43:23.686Z,25.42
2023-03-01T19:48:25.688Z,30.65
2023-03-01T19:53:27.567Z,28.73
2023-03-01T19:58:30.786Z,29.95
2023-03-01T20:03:36.373Z,41.67
2023-03-01T20:08:40.275Z,27.92
2023-03-01T20:13:42.444Z,30.33
2023-03-01T20:18:44.490Z,33.30
2023-03-01T20:23:47.263Z,30.42
2023-03-01T20:28:54.070Z,34.72
2023-03-01T20:33:57.576Z,22.13
2023-03-01T20:38:59.618Z,30.55
2023-03-01T20:44:01.380Z,24.83
2023-03-01T20:49:04.350Z,26.25
2023-03-01T20:54:06.286Z,26.25
2023-03-01T20:59:09.788Z,23.38
2023-03-01T21:04:11.707Z,29.70
2023-03-01T21:09:13.446Z,23.50
2023-03-01T21:14:15.122Z,22.98
2023-03-01T21:19:17.172Z,29.13
2023-03-01T21:24:18.856Z,29.02
2023-03-01T21:29:20.679Z,25.52
2023-03-01T21:34:22.323Z,34.47
2023-03-01T21:39:28.850Z,20.92
2023-03-01T21:44:31.667Z,25.37
2023-03-01T21:49:33.297Z,25.00
2023-03-01T21:54:35.148Z,26.50
2023-03-01T21:59:36.903Z,31.67
2023-03-01T22:04:38.536Z,32.33
2023-03-01T22:09:40.391Z,26.77
2023-03-01T22:14:43.852Z,26.08
2023-03-01T22:19:46.377Z,23.05
2023-03-01T22:24:48.014Z,29.63
2023-03-01T22:29:49.641Z,30.38
2023-03-01T22:34:51.317Z,29.98
2023-03-01T22:39:53.066Z,29.95
2023-03-01T22:44:54.730Z,29.08
2023-03-01T22:49:57.056Z,25.92
2023-03-01T22:54:58.972Z,27.10
2023-03-01T23:00:00.706Z,24.60
2023-03-01T23:05:02.511Z,22.77
2023-03-01T23:10:05.560Z,31.42
2023-03-01T23:15:08.447Z,27.10
2023-03-01T23:20:10.875Z,24.08
2023-03-01T23:25:13.219Z,28.52
2023-03-01T23:30:15.066Z,32.67
2023-03-01T23:35:16.788Z,25.95
2023-03-01T23:40:20.549Z,35.10
2023-03-01T23:45:22.218Z,35.33
2023-03-01T23:50:25.009Z,26.75
2023-03-01T23:55:29.396Z,35.78
